createdAt,value
2017-08-29T00:00:51.080Z,1012.26
2017-08-29T00:01:51.112Z,1012.22
2017-08-29T00:03:44.585Z,1012.29
2017-08-29T00:04:44.617Z,1012.32
2017-08-29T00:06:39.104Z,1012.33
2017-08-29T00:07:39.120Z,1012.31
2017-08-29T00:09:33.601Z,1012.31
2017-08-29T00:10:33.617Z,1012.26
2017-08-29T00:12:28.110Z,1012.26
2017-08-29T00:13:28.129Z,1012.29
2017-08-29T00:15:22.617Z,1012.25
2017-08-29T00:16:22.641Z,1012.24
2017-08-29T00:18:17.090Z,1012.22
2017-08-29T00:19:25.753Z,1012.21
2017-08-29T00:21:11.609Z,1012.22
2017-08-29T00:22:11.641Z,1012.20
2017-08-29T00:24:08.740Z,1012.26
2017-08-29T00:25:08.786Z,1012.25
2017-08-29T00:27:03.242Z,1012.28
2017-08-29T00:28:03.250Z,1012.28
2017-08-29T00:29:57.706Z,1012.26
2017-08-29T00:30:57.762Z,1012.27
2017-08-29T00:32:52.250Z,1012.26
2017-08-29T00:33:52.242Z,1012.28
2017-08-29T00:35:46.707Z,1012.27
2017-08-29T00:36:46.886Z,1012.28
2017-08-29T00:38:41.210Z,1012.29
2017-08-29T00:39:41.234Z,1012.30
2017-08-29T00:41:35.871Z,1012.30
2017-08-29T00:42:35.754Z,1012.29
2017-08-29T00:44:29.258Z,1012.25
2017-08-29T00:45:29.235Z,1012.27
2017-08-29T00:47:23.715Z,1012.28
2017-08-29T00:48:23.746Z,1012.27
2017-08-29T00:50:18.227Z,1012.29
2017-08-29T00:51:18.235Z,1012.27
2017-08-29T00:53:12.747Z,1012.25
2017-08-29T00:54:12.755Z,1012.26
2017-08-29T00:56:07.203Z,1012.23
2017-08-29T00:57:07.235Z,1012.26
2017-08-29T00:59:01.723Z,1012.24
2017-08-29T01:00:01.741Z,1012.25
2017-08-29T01:01:56.204Z,1012.24
2017-08-29T01:02:56.251Z,1012.23
2017-08-29T01:04:50.723Z,1012.19
2017-08-29T01:05:50.747Z,1012.21
2017-08-29T01:07:45.202Z,1012.14
2017-08-29T01:08:45.259Z,1012.18
2017-08-29T01:10:38.739Z,1012.14
2017-08-29T01:11:38.771Z,1012.14
2017-08-29T01:13:33.377Z,1012.14
2017-08-29T01:14:33.271Z,1012.13
2017-08-29T01:16:26.756Z,1012.14
2017-08-29T01:17:26.788Z,1012.14
2017-08-29T01:19:21.268Z,1012.12
2017-08-29T01:20:21.284Z,1012.09
2017-08-29T01:22:15.740Z,1012.08
2017-08-29T01:23:15.780Z,1012.07
2017-08-29T01:25:10.252Z,1012.05
2017-08-29T01:26:10.268Z,1012.07
2017-08-29T01:28:04.781Z,1012.04
2017-08-29T01:29:04.781Z,1012.01
2017-08-29T01:30:59.485Z,1012.00
2017-08-29T01:31:59.533Z,1012.02
2017-08-29T01:33:53.997Z,1011.98
2017-08-29T01:34:54.014Z,1011.97
2017-08-29T01:36:48.605Z,1011.96
2017-08-29T01:37:48.525Z,1011.93
2017-08-29T01:39:42.973Z,1011.95
2017-08-29T01:40:43.022Z,1011.91
2017-08-29T01:42:37.686Z,1011.93
2017-08-29T01:43:37.702Z,1011.93
2017-08-29T01:45:32.166Z,1011.90
2017-08-29T01:46:32.230Z,1011.90
2017-08-29T01:48:26.902Z,1011.87
2017-08-29T01:49:26.702Z,1011.83
2017-08-29T01:51:21.150Z,1011.86
2017-08-29T01:52:21.214Z,1011.84
2017-08-29T01:54:15.678Z,1011.81
2017-08-29T01:55:15.702Z,1011.82
2017-08-29T01:57:10.151Z,1011.78
2017-08-29T01:58:18.886Z,1011.79
2017-08-29T02:00:03.702Z,1011.77
2017-08-29T02:01:03.703Z,1011.80
2017-08-29T02:02:57.160Z,1011.74
2017-08-29T02:03:57.214Z,1011.76
2017-08-29T02:05:51.695Z,1011.76
2017-08-29T02:06:51.703Z,1011.73
2017-08-29T02:08:46.158Z,1011.73
2017-08-29T02:09:46.223Z,1011.75
2017-08-29T02:11:39.703Z,1011.71
2017-08-29T02:12:39.703Z,1011.71
2017-08-29T02:14:34.167Z,1011.69
2017-08-29T02:15:34.199Z,1011.63
2017-08-29T02:17:28.687Z,1011.65
2017-08-29T02:18:28.703Z,1011.68
2017-08-29T02:20:23.208Z,1011.63
2017-08-29T02:21:23.200Z,1011.61
2017-08-29T02:23:16.687Z,1011.59
2017-08-29T02:24:16.719Z,1011.59
2017-08-29T02:26:11.215Z,1011.57
2017-08-29T02:27:11.232Z,1011.60
2017-08-29T02:29:05.760Z,1011.58
2017-08-29T02:30:05.753Z,1011.57
2017-08-29T02:32:00.184Z,1011.56
2017-08-29T02:33:00.208Z,1011.54
2017-08-29T02:34:54.723Z,1011.49
2017-08-29T02:35:54.713Z,1011.48
2017-08-29T02:37:49.169Z,1011.49
2017-08-29T02:38:49.216Z,1011.48
2017-08-29T02:40:43.704Z,1011.53
2017-08-29T02:41:43.712Z,1011.52
2017-08-29T02:43:38.184Z,1011.51
2017-08-29T02:44:38.304Z,1011.50
2017-08-29T02:46:32.696Z,1011.51
2017-08-29T02:47:32.720Z,1011.52
2017-08-29T02:49:27.217Z,1011.50
2017-08-29T02:50:27.240Z,1011.50
2017-08-29T02:52:21.719Z,1011.54
2017-08-29T02:53:21.713Z,1011.51
2017-08-29T02:55:16.177Z,1011.47
2017-08-29T02:56:16.217Z,1011.51
2017-08-29T02:58:10.721Z,1011.46
2017-08-29T02:59:10.722Z,1011.49
2017-08-29T03:01:05.201Z,1011.46
2017-08-29T03:02:05.226Z,1011.43
2017-08-29T03:03:59.705Z,1011.42
2017-08-29T03:04:59.721Z,1011.42
2017-08-29T03:06:54.177Z,1011.37
2017-08-29T03:07:54.241Z,1011.38
2017-08-29T03:09:50.185Z,1011.31
2017-08-29T03:10:50.210Z,1011.35
2017-08-29T03:12:46.322Z,1011.36
2017-08-29T03:13:46.369Z,1011.30
2017-08-29T03:15:39.761Z,1011.32
2017-08-29T03:16:39.770Z,1011.32
2017-08-29T03:18:34.234Z,1011.34
2017-08-29T03:19:34.266Z,1011.31
2017-08-29T03:21:28.754Z,1011.33
2017-08-29T03:22:28.786Z,1011.32
2017-08-29T03:24:23.226Z,1011.35
2017-08-29T03:25:23.274Z,1011.34
2017-08-29T03:27:17.762Z,1011.34
2017-08-29T03:28:17.778Z,1011.33
2017-08-29T03:30:11.219Z,1011.31
2017-08-29T03:31:11.258Z,1011.32
2017-08-29T03:33:05.755Z,1011.33
2017-08-29T03:34:05.763Z,1011.30
2017-08-29T03:36:00.226Z,1011.37
2017-08-29T03:37:00.274Z,1011.35
2017-08-29T03:38:54.723Z,1011.32
2017-08-29T03:39:54.754Z,1011.39
2017-08-29T03:41:50.235Z,1011.35
2017-08-29T03:42:50.243Z,1011.37
2017-08-29T03:44:44.731Z,1011.35
2017-08-29T03:45:44.763Z,1011.36
2017-08-29T03:47:39.228Z,1011.30
2017-08-29T03:48:39.238Z,1011.33
2017-08-29T03:50:33.691Z,1011.32
2017-08-29T03:51:33.747Z,1011.31
2017-08-29T03:53:28.235Z,1011.24
2017-08-29T03:54:28.227Z,1011.27
2017-08-29T03:56:21.684Z,1011.20
2017-08-29T03:57:21.748Z,1011.23
2017-08-29T03:59:16.219Z,1011.21
2017-08-29T04:00:16.228Z,1011.21
2017-08-29T04:02:10.691Z,1011.24
2017-08-29T04:03:10.732Z,1011.23
2017-08-29T04:05:05.196Z,1011.23
2017-08-29T04:06:05.220Z,1011.27
2017-08-29T04:07:59.748Z,1011.25
2017-08-29T04:08:59.733Z,1011.24
2017-08-29T04:10:54.172Z,1011.28
2017-08-29T04:11:54.222Z,1011.23
2017-08-29T04:13:50.332Z,1011.26
2017-08-29T04:14:50.333Z,1011.25
2017-08-29T04:16:44.740Z,1011.28
2017-08-29T04:17:44.772Z,1011.27
2017-08-29T04:19:39.252Z,1011.30
2017-08-29T04:20:39.268Z,1011.31
2017-08-29T04:22:32.748Z,1011.32
2017-08-29T04:23:32.772Z,1011.27
2017-08-29T04:25:27.220Z,1011.25
2017-08-29T04:26:27.252Z,1011.29
2017-08-29T04:28:21.733Z,1011.34
2017-08-29T04:29:21.749Z,1011.28
2017-08-29T04:31:18.877Z,1011.24
2017-08-29T04:32:18.845Z,1011.24
2017-08-29T04:34:12.285Z,1011.26
2017-08-29T04:35:12.301Z,1011.25
2017-08-29T04:37:06.781Z,1011.24
2017-08-29T04:38:06.805Z,1011.24
2017-08-29T04:40:01.254Z,1011.22
2017-08-29T04:41:01.297Z,1011.24
2017-08-29T04:42:55.789Z,1011.24
2017-08-29T04:43:55.806Z,1011.25
2017-08-29T04:45:50.304Z,1011.25
2017-08-29T04:46:50.317Z,1011.25
2017-08-29T04:48:44.789Z,1011.32
2017-08-29T04:49:44.877Z,1011.31
2017-08-29T04:51:39.270Z,1011.27
2017-08-29T04:52:39.285Z,1011.22
2017-08-29T04:54:32.773Z,1011.28
2017-08-29T04:55:32.797Z,1011.24
2017-08-29T04:57:27.279Z,1011.29
2017-08-29T04:58:27.302Z,1011.29
2017-08-29T05:00:21.766Z,1011.27
2017-08-29T05:01:21.806Z,1011.24
2017-08-29T05:03:16.294Z,1011.19
2017-08-29T05:04:16.318Z,1011.22
2017-08-29T05:06:10.769Z,1011.21
2017-08-29T05:07:10.809Z,1011.25
2017-08-29T05:09:05.271Z,1011.30
2017-08-29T05:10:05.294Z,1011.30
2017-08-29T05:11:59.750Z,1011.34
2017-08-29T05:12:59.798Z,1011.27
2017-08-29T05:14:54.271Z,1011.28
2017-08-29T05:15:54.279Z,1011.27
2017-08-29T05:17:48.775Z,1011.27
2017-08-29T05:18:48.783Z,1011.22
2017-08-29T05:20:43.231Z,1011.30
2017-08-29T05:21:43.270Z,1011.25
2017-08-29T05:23:37.751Z,1011.31
2017-08-29T05:24:37.775Z,1011.36
2017-08-29T05:26:31.223Z,1011.34
2017-08-29T05:27:31.256Z,1011.37
2017-08-29T05:29:25.727Z,1011.35
2017-08-29T05:30:25.743Z,1011.34
2017-08-29T05:32:19.215Z,1011.34
2017-08-29T05:33:19.247Z,1011.36
2017-08-29T05:35:13.727Z,1011.35
2017-08-29T05:36:13.751Z,1011.35
2017-08-29T05:38:08.208Z,1011.37
2017-08-29T05:39:08.248Z,1011.40
2017-08-29T05:41:02.720Z,1011.32
2017-08-29T05:42:02.743Z,1011.31
2017-08-29T05:43:57.395Z,1011.28
2017-08-29T05:44:57.440Z,1011.27
2017-08-29T05:46:51.920Z,1011.22
2017-08-29T05:47:51.944Z,1011.27
2017-08-29T05:49:45.392Z,1011.23
2017-08-29T05:50:45.424Z,1011.27
2017-08-29T05:52:39.912Z,1011.25
2017-08-29T05:53:39.949Z,1011.26
2017-08-29T05:55:34.453Z,1011.22
2017-08-29T05:56:34.511Z,1011.22
2017-08-29T05:58:30.567Z,1011.25
2017-08-29T05:59:30.495Z,1011.20
2017-08-29T06:01:24.023Z,1011.23
2017-08-29T06:02:24.071Z,1011.21
2017-08-29T06:04:18.528Z,1011.20
2017-08-29T06:05:18.559Z,1011.22
2017-08-29T06:07:13.016Z,1011.28
2017-08-29T06:08:13.056Z,1011.30
2017-08-29T06:10:06.543Z,1011.34
2017-08-29T06:11:06.565Z,1011.34
2017-08-29T06:13:01.008Z,1011.35
2017-08-29T06:14:01.048Z,1011.35
2017-08-29T06:15:55.553Z,1011.33
2017-08-29T06:16:55.560Z,1011.33
2017-08-29T06:18:50.024Z,1011.29
2017-08-29T06:19:50.056Z,1011.25
2017-08-29T06:21:44.537Z,1011.27
2017-08-29T06:22:44.561Z,1011.26
2017-08-29T06:24:39.023Z,1011.27
2017-08-29T06:25:39.065Z,1011.30
2017-08-29T06:27:32.569Z,1011.24
2017-08-29T06:28:32.585Z,1011.28
2017-08-29T06:30:30.665Z,1011.20
2017-08-29T06:31:27.049Z,1011.23
2017-08-29T06:33:21.089Z,1011.20
2017-08-29T06:34:20.600Z,1011.15
2017-08-29T06:36:15.108Z,1011.15
2017-08-29T06:37:15.129Z,1011.18
2017-08-29T06:39:09.625Z,1011.14
2017-08-29T06:40:09.665Z,1011.18
2017-08-29T06:42:04.137Z,1011.17
2017-08-29T06:43:04.265Z,1011.15
2017-08-29T06:44:58.659Z,1011.21
2017-08-29T06:45:58.673Z,1011.22
2017-08-29T06:47:53.145Z,1011.20
2017-08-29T06:48:53.177Z,1011.19
2017-08-29T06:50:46.669Z,1011.16
2017-08-29T06:51:46.681Z,1011.16
2017-08-29T06:53:41.179Z,1011.17
2017-08-29T06:54:41.210Z,1011.19
2017-08-29T06:56:35.826Z,1011.17
2017-08-29T06:57:35.714Z,1011.15
2017-08-29T06:59:30.162Z,1011.19
2017-08-29T07:00:30.218Z,1011.16
2017-08-29T07:02:26.290Z,1011.11
2017-08-29T07:03:26.322Z,1011.12
2017-08-29T07:05:19.730Z,1011.10
2017-08-29T07:06:19.762Z,1011.16
2017-08-29T07:08:14.250Z,1011.05
2017-08-29T07:09:14.306Z,1011.07
2017-08-29T07:11:08.730Z,1011.06
2017-08-29T07:12:08.778Z,1011.07
2017-08-29T07:14:03.266Z,1011.02
2017-08-29T07:15:03.290Z,1011.06
2017-08-29T07:16:59.362Z,1011.09
2017-08-29T07:17:59.402Z,1011.08
2017-08-29T07:19:53.835Z,1011.11
2017-08-29T07:20:53.882Z,1011.09
2017-08-29T07:22:47.548Z,1011.14
2017-08-29T07:23:47.559Z,1011.17
2017-08-29T07:25:42.191Z,1011.19
2017-08-29T07:26:42.224Z,1011.24
2017-08-29T07:28:41.988Z,1011.24
2017-08-29T07:29:36.635Z,1011.22
2017-08-29T07:31:31.051Z,1011.22
2017-08-29T07:32:31.611Z,1011.21
2017-08-29T07:34:25.596Z,1011.20
2017-08-29T07:35:25.628Z,1011.24
2017-08-29T07:37:21.259Z,1011.24
2017-08-29T07:38:22.021Z,1011.26
2017-08-29T07:40:15.308Z,1011.23
2017-08-29T07:41:15.863Z,1011.22
2017-08-29T07:43:08.371Z,1011.23
2017-08-29T07:44:09.339Z,1011.23
2017-08-29T07:46:01.827Z,1011.30
2017-08-29T07:47:02.323Z,1011.28
2017-08-29T07:49:44.588Z,1011.25
2017-08-29T07:50:44.652Z,1011.29
2017-08-29T07:52:38.307Z,1011.34
2017-08-29T07:53:38.335Z,1011.30
2017-08-29T07:55:32.067Z,1011.32
2017-08-29T07:56:42.107Z,1011.24
2017-08-29T07:58:38.643Z,1011.29
2017-08-29T08:00:56.339Z,1011.25
2017-08-29T08:01:57.094Z,1011.27
2017-08-29T08:03:50.835Z,1011.26
2017-08-29T08:04:50.795Z,1011.26
2017-08-29T08:06:45.364Z,1011.23
2017-08-29T08:07:45.371Z,1011.24
2017-08-29T08:09:39.763Z,1011.29
2017-08-29T08:10:39.824Z,1011.23
2017-08-29T08:12:34.320Z,1011.22
2017-08-29T08:13:34.345Z,1011.26
2017-08-29T08:15:27.794Z,1011.21
2017-08-29T08:16:27.833Z,1011.24
2017-08-29T08:18:22.137Z,1011.24
2017-08-29T08:19:22.129Z,1011.22
2017-08-29T08:21:16.641Z,1011.23
2017-08-29T08:22:16.705Z,1011.20
2017-08-29T08:24:11.701Z,1011.25
2017-08-29T08:25:11.594Z,1011.29
2017-08-29T08:27:06.041Z,1011.29
2017-08-29T08:28:06.089Z,1011.31
2017-08-29T08:30:00.593Z,1011.29
2017-08-29T08:31:00.616Z,1011.30
2017-08-29T08:32:55.104Z,1011.28
2017-08-29T08:33:55.624Z,1011.30
2017-08-29T08:35:49.611Z,1011.27
2017-08-29T08:36:49.665Z,1011.24
2017-08-29T08:38:44.505Z,1011.21
2017-08-29T08:39:44.209Z,1011.25
2017-08-29T08:41:38.656Z,1011.17
2017-08-29T08:42:38.659Z,1011.16
2017-08-29T08:44:33.251Z,1011.15
2017-08-29T08:45:33.219Z,1011.17
2017-08-29T08:47:29.299Z,1011.16
2017-08-29T08:48:29.347Z,1011.22
2017-08-29T08:50:22.820Z,1011.19
2017-08-29T08:51:22.845Z,1011.22
2017-08-29T08:53:18.939Z,1011.25
2017-08-29T08:54:18.971Z,1011.29
2017-08-29T08:56:13.410Z,1011.30
2017-08-29T08:57:13.442Z,1011.32
2017-08-29T08:59:08.499Z,1011.28
2017-08-29T09:00:07.987Z,1011.29
2017-08-29T09:02:02.451Z,1011.26
2017-08-29T09:03:02.475Z,1011.28
2017-08-29T09:04:56.971Z,1011.34
2017-08-29T09:05:56.996Z,1011.29
2017-08-29T09:07:51.483Z,1011.36
2017-08-29T09:08:51.507Z,1011.38
2017-08-29T09:10:47.491Z,1011.32
2017-08-29T09:11:47.051Z,1011.39
2017-08-29T09:13:40.539Z,1011.40
2017-08-29T09:14:40.548Z,1011.40
2017-08-29T09:16:35.003Z,1011.41
2017-08-29T09:17:35.066Z,1011.35
2017-08-29T09:19:29.555Z,1011.37
2017-08-29T09:20:29.571Z,1011.18
2017-08-29T09:22:24.540Z,1011.25
2017-08-29T09:23:24.112Z,1011.26
2017-08-29T09:25:18.687Z,1011.31
2017-08-29T09:26:18.708Z,1011.28
2017-08-29T09:28:13.187Z,1011.25
2017-08-29T09:29:13.227Z,1011.23
2017-08-29T09:31:07.691Z,1011.20
2017-08-29T09:32:07.731Z,1011.18
2017-08-29T09:34:02.235Z,1011.23
2017-08-29T09:35:02.251Z,1011.19
2017-08-29T09:36:56.723Z,1011.16
2017-08-29T09:37:56.771Z,1011.14
2017-08-29T09:39:51.267Z,1011.10
2017-08-29T09:40:51.299Z,1011.11
2017-08-29T09:42:45.773Z,1011.12
2017-08-29T09:43:45.812Z,1011.10
2017-08-29T09:45:40.307Z,1011.11
2017-08-29T09:46:40.331Z,1011.09
2017-08-29T09:48:34.835Z,1011.14
2017-08-29T09:49:34.875Z,1011.17
2017-08-29T09:51:29.332Z,1011.15
2017-08-29T09:52:29.387Z,1011.09
2017-08-29T09:54:23.876Z,1011.08
2017-08-29T09:55:23.892Z,1011.13
2017-08-29T09:57:18.412Z,1011.08
2017-08-29T09:58:18.437Z,1011.07
2017-08-29T10:00:13.069Z,1011.08
2017-08-29T10:01:12.996Z,1011.08
2017-08-29T10:03:07.485Z,1011.08
2017-08-29T10:04:07.564Z,1011.09
2017-08-29T10:06:01.964Z,1011.03
2017-08-29T10:07:02.814Z,1010.97
2017-08-29T10:09:03.148Z,1010.96
2017-08-29T10:10:04.420Z,1010.92
2017-08-29T10:11:56.629Z,1010.87
2017-08-29T10:12:56.661Z,1010.90
2017-08-29T10:14:51.197Z,1010.83
2017-08-29T10:15:51.229Z,1010.82
2017-08-29T10:17:44.493Z,1010.82
2017-08-29T10:18:44.517Z,1010.83
2017-08-29T10:20:39.004Z,1010.84
2017-08-29T10:21:39.029Z,1010.74
2017-08-29T10:23:32.533Z,1010.75
2017-08-29T10:24:32.573Z,1010.82
2017-08-29T10:26:27.045Z,1010.79
2017-08-29T10:27:27.101Z,1010.78
2017-08-29T10:29:20.613Z,1010.79
2017-08-29T10:30:20.653Z,1010.77
2017-08-29T10:32:15.117Z,1010.75
2017-08-29T10:33:15.157Z,1010.73
2017-08-29T10:35:09.661Z,1010.73
2017-08-29T10:36:09.701Z,1010.69
2017-08-29T10:38:04.221Z,1010.69
2017-08-29T10:39:04.246Z,1010.69
2017-08-29T10:40:58.725Z,1010.70
2017-08-29T10:41:58.765Z,1010.71
2017-08-29T10:43:53.286Z,1010.63
2017-08-29T10:44:53.301Z,1010.62
2017-08-29T10:46:47.814Z,1010.62
2017-08-29T10:47:47.862Z,1010.63
2017-08-29T10:49:42.565Z,1010.65
2017-08-29T10:50:42.415Z,1010.60
2017-08-29T10:52:36.925Z,1010.70
2017-08-29T10:53:36.950Z,1010.71
2017-08-29T10:55:31.406Z,1010.64
2017-08-29T10:56:31.446Z,1010.60
2017-08-29T10:58:26.055Z,1010.55
2017-08-29T10:59:25.998Z,1010.57
2017-08-29T11:01:20.505Z,1010.54
2017-08-29T11:02:20.526Z,1010.54
2017-08-29T11:04:15.043Z,1010.58
2017-08-29T11:05:15.150Z,1010.54
2017-08-29T11:07:09.582Z,1010.53
2017-08-29T11:08:09.598Z,1010.46
2017-08-29T11:10:05.655Z,1010.48
2017-08-29T11:11:05.640Z,1010.49
2017-08-29T11:13:00.158Z,1010.45
2017-08-29T11:14:00.223Z,1010.46
2017-08-29T11:15:54.703Z,1010.45
2017-08-29T11:16:54.743Z,1010.41
2017-08-29T11:18:49.279Z,1010.42
2017-08-29T11:19:49.333Z,1010.37
2017-08-29T11:21:42.805Z,1010.40
2017-08-29T11:22:42.832Z,1010.34
2017-08-29T11:24:37.448Z,1010.29
2017-08-29T11:25:37.383Z,1010.29
2017-08-29T11:27:31.895Z,1010.21
2017-08-29T11:28:31.911Z,1010.24
2017-08-29T11:30:26.399Z,1010.22
2017-08-29T11:31:26.463Z,1010.24
2017-08-29T11:33:22.480Z,1010.26
2017-08-29T11:34:22.473Z,1010.29
2017-08-29T11:36:16.960Z,1010.17
2017-08-29T11:37:17.015Z,1010.20
2017-08-29T11:39:11.544Z,1010.22
2017-08-29T11:40:11.560Z,1010.28
2017-08-29T11:42:06.048Z,1010.20
2017-08-29T11:43:06.096Z,1010.19
2017-08-29T11:45:00.632Z,1010.18
2017-08-29T11:46:00.632Z,1010.15
2017-08-29T11:47:55.120Z,1010.23
2017-08-29T11:48:55.176Z,1010.23
2017-08-29T11:50:49.704Z,1010.28
2017-08-29T11:51:49.728Z,1010.24
2017-08-29T11:53:44.232Z,1010.27
2017-08-29T11:54:44.264Z,1010.27
2017-08-29T11:56:38.792Z,1010.20
2017-08-29T11:57:38.793Z,1010.25
2017-08-29T11:59:33.281Z,1010.24
2017-08-29T12:00:33.337Z,1010.25
2017-08-29T12:02:26.857Z,1010.24
2017-08-29T12:03:26.873Z,1010.24
2017-08-29T12:05:21.354Z,1010.17
2017-08-29T12:06:21.409Z,1010.21
2017-08-29T12:08:15.920Z,1010.22
2017-08-29T12:09:15.953Z,1010.15
2017-08-29T12:11:10.481Z,1010.25
2017-08-29T12:12:10.505Z,1010.25
2017-08-29T12:14:04.970Z,1010.29
2017-08-29T12:15:05.026Z,1010.13
2017-08-29T12:16:59.538Z,1010.19
2017-08-29T12:17:59.570Z,1010.18
2017-08-29T12:19:54.050Z,1010.17
2017-08-29T12:20:54.106Z,1010.14
2017-08-29T12:22:47.658Z,1010.16
2017-08-29T12:23:47.642Z,1010.22
2017-08-29T12:25:42.129Z,1010.18
2017-08-29T12:26:42.192Z,1010.17
2017-08-29T12:28:36.690Z,1010.08
2017-08-29T12:29:36.727Z,1010.10
2017-08-29T12:31:31.226Z,1010.08
2017-08-29T12:32:31.282Z,1010.03
2017-08-29T12:34:25.882Z,1010.00
2017-08-29T12:35:25.802Z,1010.05
2017-08-29T12:37:20.299Z,1010.00
2017-08-29T12:38:20.354Z,1010.01
2017-08-29T12:40:14.835Z,1010.00
2017-08-29T12:41:14.882Z,1009.95
2017-08-29T12:43:09.387Z,1009.97
2017-08-29T12:44:09.427Z,1009.94
2017-08-29T12:46:03.917Z,1009.92
2017-08-29T12:47:03.980Z,1009.95
2017-08-29T12:48:58.483Z,1009.93
2017-08-29T12:49:58.523Z,1009.98
2017-08-29T12:51:52.005Z,1009.94
2017-08-29T12:52:52.052Z,1010.01
2017-08-29T12:54:46.571Z,1009.98
2017-08-29T12:55:46.590Z,1009.98
2017-08-29T12:57:41.067Z,1010.03
2017-08-29T12:58:41.123Z,1010.04
2017-08-29T13:00:34.623Z,1010.00
2017-08-29T13:01:34.668Z,1009.99
2017-08-29T13:03:29.172Z,1010.00
2017-08-29T13:04:29.212Z,1010.00
2017-08-29T13:06:22.691Z,1010.00
2017-08-29T13:07:22.739Z,1009.98
2017-08-29T13:09:16.300Z,1009.99
2017-08-29T13:10:16.332Z,1009.99
2017-08-29T13:12:12.372Z,1009.85
2017-08-29T13:13:12.380Z,1009.87
2017-08-29T13:15:05.900Z,1009.98
2017-08-29T13:16:05.934Z,1010.02
2017-08-29T13:18:00.444Z,1010.02
2017-08-29T13:19:00.476Z,1009.97
2017-08-29T13:20:55.012Z,1009.96
2017-08-29T13:21:55.028Z,1009.98
2017-08-29T13:23:49.548Z,1010.02
2017-08-29T13:24:49.581Z,1010.05
2017-08-29T13:26:45.572Z,1009.95
2017-08-29T13:27:45.630Z,1009.79
2017-08-29T13:29:40.173Z,1009.72
2017-08-29T13:30:40.164Z,1009.59
2017-08-29T13:32:34.677Z,1009.59
2017-08-29T13:33:34.717Z,1009.54
2017-08-29T13:35:29.229Z,1009.58
2017-08-29T13:36:29.261Z,1009.57
2017-08-29T13:38:23.803Z,1009.52
2017-08-29T13:39:23.837Z,1009.58
2017-08-29T13:41:18.285Z,1009.52
2017-08-29T13:42:18.349Z,1009.56
2017-08-29T13:44:12.853Z,1009.56
2017-08-29T13:45:12.883Z,1009.53
2017-08-29T13:47:07.362Z,1009.51
2017-08-29T13:48:07.410Z,1009.50
2017-08-29T13:50:01.927Z,1009.49
2017-08-29T13:51:01.954Z,1009.41
2017-08-29T13:52:56.427Z,1009.32
2017-08-29T13:53:56.491Z,1009.23
2017-08-29T13:55:50.979Z,1009.16
2017-08-29T13:56:51.027Z,1009.11
2017-08-29T13:58:45.563Z,1009.09
2017-08-29T13:59:45.611Z,1009.07
2017-08-29T14:01:40.076Z,1009.06
2017-08-29T14:02:40.123Z,1009.11
2017-08-29T14:04:34.627Z,1009.30
2017-08-29T14:05:34.651Z,1009.49
2017-08-29T14:07:29.139Z,1009.62
2017-08-29T14:08:29.187Z,1009.53
2017-08-29T14:10:22.723Z,1009.56
2017-08-29T14:11:22.750Z,1009.61
2017-08-29T14:13:17.203Z,1009.48
2017-08-29T14:14:17.253Z,1009.47
2017-08-29T14:16:10.772Z,1009.42
2017-08-29T14:17:10.787Z,1009.41
2017-08-29T14:19:06.780Z,1009.38
2017-08-29T14:20:06.812Z,1009.36
2017-08-29T14:22:00.332Z,1009.35
2017-08-29T14:23:00.348Z,1009.15
2017-08-29T14:25:06.381Z,1009.04
2017-08-29T14:26:06.396Z,1008.96
2017-08-29T14:28:00.909Z,1008.92
2017-08-29T14:29:00.917Z,1008.86
2017-08-29T14:30:55.429Z,1008.79
2017-08-29T14:31:55.452Z,1008.76
2017-08-29T14:33:48.932Z,1008.68
2017-08-29T14:34:49.157Z,1008.67
2017-08-29T14:36:43.485Z,1008.61
2017-08-29T14:37:43.508Z,1008.60
2017-08-29T14:39:37.975Z,1008.61
2017-08-29T14:40:38.991Z,1008.60
2017-08-29T14:42:32.543Z,1008.60
2017-08-29T14:43:32.543Z,1008.60
2017-08-29T14:45:26.015Z,1008.57
2017-08-29T14:46:26.063Z,1008.55
2017-08-29T14:48:20.559Z,1008.54
2017-08-29T14:49:20.592Z,1008.52
2017-08-29T14:51:15.111Z,1008.46
2017-08-29T14:52:15.135Z,1008.51
2017-08-29T14:54:09.616Z,1008.51
2017-08-29T14:55:09.680Z,1008.50
2017-08-29T14:57:04.280Z,1008.44
2017-08-29T14:58:04.191Z,1008.48
2017-08-29T14:59:57.672Z,1008.53
2017-08-29T15:00:57.736Z,1008.62
2017-08-29T15:02:52.216Z,1008.57
2017-08-29T15:03:52.225Z,1008.53
2017-08-29T15:05:46.724Z,1008.45
2017-08-29T15:06:46.744Z,1008.53
2017-08-29T15:08:41.216Z,1008.52
2017-08-29T15:09:41.263Z,1008.53
2017-08-29T15:11:35.769Z,1008.54
2017-08-29T15:12:35.808Z,1008.53
2017-08-29T15:14:29.640Z,1008.43
2017-08-29T15:15:29.328Z,1008.44
2017-08-29T15:17:23.881Z,1008.39
2017-08-29T15:18:23.841Z,1008.43
2017-08-29T15:20:18.320Z,1008.44
2017-08-29T15:21:18.450Z,1008.42
2017-08-29T15:23:11.873Z,1008.32
2017-08-29T15:24:11.889Z,1008.34
2017-08-29T15:26:06.361Z,1008.38
2017-08-29T15:27:06.409Z,1008.39
2017-08-29T15:29:00.897Z,1008.44
2017-08-29T15:30:00.922Z,1008.41
2017-08-29T15:31:56.945Z,1008.34
2017-08-29T15:32:56.945Z,1008.36
2017-08-29T15:34:51.466Z,1008.28
2017-08-29T15:35:51.474Z,1008.30
2017-08-29T15:37:47.001Z,1008.31
2017-08-29T15:38:46.113Z,1008.36
2017-08-29T15:40:40.626Z,1008.33
2017-08-29T15:41:40.649Z,1008.30
2017-08-29T15:43:35.136Z,1008.25
2017-08-29T15:44:35.178Z,1008.21
2017-08-29T15:46:28.658Z,1008.16
2017-08-29T15:47:28.698Z,1008.18
2017-08-29T15:49:23.210Z,1008.19
2017-08-29T15:50:24.138Z,1008.20
2017-08-29T15:52:17.713Z,1008.18
2017-08-29T15:53:17.762Z,1008.16
2017-08-29T15:55:12.258Z,1008.15
2017-08-29T15:56:12.282Z,1008.11
2017-08-29T15:58:06.754Z,1008.10
2017-08-29T15:59:06.795Z,1008.15
2017-08-29T16:01:00.346Z,1008.17
2017-08-29T16:02:00.346Z,1008.13
2017-08-29T16:03:54.314Z,1008.11
2017-08-29T16:04:54.034Z,1008.11
2017-08-29T16:06:48.706Z,1008.13
2017-08-29T16:07:48.442Z,1008.12
2017-08-29T16:09:41.682Z,1008.09
2017-08-29T16:10:41.459Z,1008.10
2017-08-29T16:12:35.971Z,1008.10
2017-08-29T16:13:36.003Z,1008.13
2017-08-29T16:15:30.555Z,1008.11
2017-08-29T16:16:30.507Z,1008.13
2017-08-29T16:18:24.043Z,1008.09
2017-08-29T16:19:24.075Z,1008.07
2017-08-29T16:21:18.539Z,1008.09
2017-08-29T16:22:18.667Z,1008.07
2017-08-29T16:24:13.052Z,1008.05
2017-08-29T16:25:13.099Z,1008.03
2017-08-29T16:27:06.588Z,1008.06
2017-08-29T16:28:06.620Z,1008.09
2017-08-29T16:30:01.100Z,1008.10
2017-08-29T16:31:01.139Z,1008.06
2017-08-29T16:32:54.635Z,1008.08
2017-08-29T16:33:54.660Z,1008.05
2017-08-29T16:35:49.159Z,1008.00
2017-08-29T16:36:49.180Z,1008.03
2017-08-29T16:38:42.660Z,1007.96
2017-08-29T16:39:42.700Z,1007.97
2017-08-29T16:41:37.188Z,1007.92
2017-08-29T16:42:37.212Z,1007.93
2017-08-29T16:44:30.691Z,1007.93
2017-08-29T16:45:30.724Z,1007.91
2017-08-29T16:47:25.220Z,1007.89
2017-08-29T16:48:25.236Z,1007.90
2017-08-29T16:50:19.716Z,1007.89
2017-08-29T16:51:19.764Z,1007.89
2017-08-29T16:53:14.253Z,1007.94
2017-08-29T16:54:14.276Z,1007.95
2017-08-29T16:56:08.765Z,1007.93
2017-08-29T16:57:08.813Z,1007.92
2017-08-29T16:59:03.309Z,1007.94
2017-08-29T17:00:03.333Z,1007.96
2017-08-29T17:01:57.807Z,1007.94
2017-08-29T17:02:57.861Z,1007.91
2017-08-29T17:04:52.349Z,1007.91
2017-08-29T17:05:52.365Z,1007.87
2017-08-29T17:07:46.877Z,1007.88
2017-08-29T17:08:46.901Z,1007.86
2017-08-29T17:10:41.357Z,1007.85
2017-08-29T17:11:41.405Z,1007.85
2017-08-29T17:13:35.917Z,1007.82
2017-08-29T17:14:35.925Z,1007.87
2017-08-29T17:16:30.397Z,1007.85
2017-08-29T17:17:30.549Z,1007.86
2017-08-29T17:19:24.997Z,1007.81
2017-08-29T17:20:24.973Z,1007.85
2017-08-29T17:22:19.501Z,1007.85
2017-08-29T17:23:19.517Z,1007.80
2017-08-29T17:25:14.021Z,1007.81
2017-08-29T17:26:14.030Z,1007.76
2017-08-29T17:28:07.865Z,1007.77
2017-08-29T17:29:07.689Z,1007.79
2017-08-29T17:31:02.185Z,1007.77
2017-08-29T17:32:02.218Z,1007.80
2017-08-29T17:33:58.186Z,1007.79
2017-08-29T17:34:58.249Z,1007.76
2017-08-29T17:36:52.842Z,1007.77